sensor_id;sensor_type;location;lat;lon;timestamp;pressure;altitude;pressure_sealevel;temperature;humidity
32081;BME280;18593;51.426;7.030;2023-04-04T00:02:00;101884.84;;;4.22;51.58
32081;BME280;18593;51.426;7.030;2023-04-04T00:04:28;101890.53;;;4.17;51.70
32081;BME280;18593;51.426;7.030;2023-04-04T00:06:55;101889.00;;;4.14;51.23
32081;BME280;18593;51.426;7.030;2023-04-04T00:09:22;101887.47;;;4.12;51.46
32081;BME280;18593;51.426;7.030;2023-04-04T00:11:50;101890.38;;;4.09;51.25
32081;BME280;18593;51.426;7.030;2023-04-04T00:14:18;101895.78;;;4.07;51.60
32081;BME280;18593;51.426;7.030;2023-04-04T00:16:45;101901.22;;;4.06;51.70
32081;BME280;18593;51.426;7.030;2023-04-04T00:19:12;101901.31;;;4.04;51.80
32081;BME280;18593;51.426;7.030;2023-04-04T00:21:43;101896.31;;;4.01;51.40
32081;BME280;18593;51.426;7.030;2023-04-04T00:24:10;101914.91;;;4.00;51.92
32081;BME280;18593;51.426;7.030;2023-04-04T00:26:37;101905.47;;;3.97;51.76
32081;BME280;18593;51.426;7.030;2023-04-04T00:29:06;101901.16;;;3.96;52.08
32081;BME280;18593;51.426;7.030;2023-04-04T00:31:33;101907.41;;;3.95;52.11
32081;BME280;18593;51.426;7.030;2023-04-04T00:34:00;101903.22;;;3.93;51.81
32081;BME280;18593;51.426;7.030;2023-04-04T00:36:27;101906.94;;;3.90;51.99
32081;BME280;18593;51.426;7.030;2023-04-04T00:38:54;101900.00;;;3.89;52.34
32081;BME280;18593;51.426;7.030;2023-04-04T00:41:21;101901.00;;;3.88;52.16
32081;BME280;18593;51.426;7.030;2023-04-04T00:43:48;101906.25;;;3.88;52.15
32081;BME280;18593;51.426;7.030;2023-04-04T00:46:16;101902.06;;;3.85;52.50
32081;BME280;18593;51.426;7.030;2023-04-04T00:48:44;101905.69;;;3.84;52.21
32081;BME280;18593;51.426;7.030;2023-04-04T00:51:13;101904.84;;;3.84;52.24
32081;BME280;18593;51.426;7.030;2023-04-04T00:53:40;101904.28;;;3.80;52.16
32081;BME280;18593;51.426;7.030;2023-04-04T00:56:10;101902.59;;;3.79;52.48
32081;BME280;18593;51.426;7.030;2023-04-04T00:58:38;101911.50;;;3.78;52.58
32081;BME280;18593;51.426;7.030;2023-04-04T01:01:05;101907.34;;;3.76;52.84
32081;BME280;18593;51.426;7.030;2023-04-04T01:03:34;101903.81;;;3.75;52.61
32081;BME280;18593;51.426;7.030;2023-04-04T01:06:02;101902.16;;;3.74;52.67
32081;BME280;18593;51.426;7.030;2023-04-04T01:08:29;101897.88;;;3.73;52.81
32081;BME280;18593;51.426;7.030;2023-04-04T01:10:57;101892.72;;;3.72;53.00
32081;BME280;18593;51.426;7.030;2023-04-04T01:13:25;101894.53;;;3.71;52.99
32081;BME280;18593;51.426;7.030;2023-04-04T01:15:53;101895.47;;;3.70;53.09
32081;BME280;18593;51.426;7.030;2023-04-04T01:18:20;101887.69;;;3.69;53.04
32081;BME280;18593;51.426;7.030;2023-04-04T01:20:55;101886.19;;;3.66;52.71
32081;BME280;18593;51.426;7.030;2023-04-04T01:23:27;101890.59;;;3.66;52.85
32081;BME280;18593;51.426;7.030;2023-04-04T01:26:02;101894.47;;;3.61;53.06
32081;BME280;18593;51.426;7.030;2023-04-04T01:28:31;101885.84;;;3.59;52.92
32081;BME280;18593;51.426;7.030;2023-04-04T01:30:59;101893.75;;;3.59;52.79
32081;BME280;18593;51.426;7.030;2023-04-04T01:33:32;101894.03;;;3.56;53.01
32081;BME280;18593;51.426;7.030;2023-04-04T01:36:04;101889.00;;;3.53;53.25
32081;BME280;18593;51.426;7.030;2023-04-04T01:38:43;101889.16;;;3.52;53.28
32081;BME280;18593;51.426;7.030;2023-04-04T01:41:16;101883.97;;;3.50;53.35
32081;BME280;18593;51.426;7.030;2023-04-04T01:43:51;101886.75;;;3.49;53.47
32081;BME280;18593;51.426;7.030;2023-04-04T01:46:18;101885.19;;;3.46;53.68
32081;BME280;18593;51.426;7.030;2023-04-04T01:48:48;101881.19;;;3.42;53.54
32081;BME280;18593;51.426;7.030;2023-04-04T01:51:20;101876.75;;;3.43;53.70
32081;BME280;18593;51.426;7.030;2023-04-04T01:53:48;101872.44;;;3.42;53.70
32081;BME280;18593;51.426;7.030;2023-04-04T01:56:17;101870.06;;;3.39;53.84
32081;BME280;18593;51.426;7.030;2023-04-04T01:58:44;101874.50;;;3.38;54.05
32081;BME280;18593;51.426;7.030;2023-04-04T02:01:12;101867.56;;;3.37;53.98
32081;BME280;18593;51.426;7.030;2023-04-04T02:03:39;101866.97;;;3.33;54.10
32081;BME280;18593;51.426;7.030;2023-04-04T02:06:06;101868.03;;;3.31;54.03
32081;BME280;18593;51.426;7.030;2023-04-04T02:08:33;101874.28;;;3.30;54.33
32081;BME280;18593;51.426;7.030;2023-04-04T02:11:02;101869.16;;;3.28;54.25
32081;BME280;18593;51.426;7.030;2023-04-04T02:13:30;101864.00;;;3.27;53.91
32081;BME280;18593;51.426;7.030;2023-04-04T02:15:59;101867.59;;;3.26;54.23
32081;BME280;18593;51.426;7.030;2023-04-04T02:18:26;101866.75;;;3.25;54.25
32081;BME280;18593;51.426;7.030;2023-04-04T02:20:56;101862.72;;;3.21;54.53
32081;BME280;18593;51.426;7.030;2023-04-04T02:23:23;101865.47;;;3.20;54.62
32081;BME280;18593;51.426;7.030;2023-04-04T02:25:50;101871.72;;;3.19;54.14
32081;BME280;18593;51.426;7.030;2023-04-04T02:28:17;101867.44;;;3.18;54.04
32081;BME280;18593;51.426;7.030;2023-04-04T02:30:48;101865.88;;;3.15;54.36
32081;BME280;18593;51.426;7.030;2023-04-04T02:33:15;101875.72;;;3.13;54.73
32081;BME280;18593;51.426;7.030;2023-04-04T02:35:43;101871.38;;;3.12;54.30
32081;BME280;18593;51.426;7.030;2023-04-04T02:38:10;101873.31;;;3.10;54.57
32081;BME280;18593;51.426;7.030;2023-04-04T02:40:43;101870.69;;;3.10;54.59
32081;BME280;18593;51.426;7.030;2023-04-04T02:43:11;101867.34;;;3.08;54.62
32081;BME280;18593;51.426;7.030;2023-04-04T02:45:38;101870.09;;;3.06;54.71
32081;BME280;18593;51.426;7.030;2023-04-04T02:48:19;101864.13;;;3.04;54.47
32081;BME280;18593;51.426;7.030;2023-04-04T02:50:48;101863.41;;;3.02;54.40
32081;BME280;18593;51.426;7.030;2023-04-04T02:53:15;101858.28;;;3.01;54.20
32081;BME280;18593;51.426;7.030;2023-04-04T02:55:44;101860.22;;;2.99;54.36
32081;BME280;18593;51.426;7.030;2023-04-04T02:58:12;101850.75;;;2.96;54.46
32081;BME280;18593;51.426;7.030;2023-04-04T03:00:39;101857.81;;;2.96;54.29
32081;BME280;18593;51.426;7.030;2023-04-04T03:03:06;101851.84;;;2.94;54.60
32081;BME280;18593;51.426;7.030;2023-04-04T03:05:40;101856.41;;;2.92;54.63
32081;BME280;18593;51.426;7.030;2023-04-04T03:08:07;101856.53;;;2.90;54.62
32081;BME280;18593;51.426;7.030;2023-04-04T03:10:34;101848.75;;;2.89;54.79
32081;BME280;18593;51.426;7.030;2023-04-04T03:13:02;101857.59;;;2.88;55.02
32081;BME280;18593;51.426;7.030;2023-04-04T03:15:31;101854.28;;;2.86;54.88
32081;BME280;18593;51.426;7.030;2023-04-04T03:17:59;101856.22;;;2.83;55.27
32081;BME280;18593;51.426;7.030;2023-04-04T03:20:27;101867.81;;;2.81;55.13
32081;BME280;18593;51.426;7.030;2023-04-04T03:22:57;101856.47;;;2.80;55.19
32081;BME280;18593;51.426;7.030;2023-04-04T03:25:25;101860.91;;;2.80;55.06
32081;BME280;18593;51.426;7.030;2023-04-04T03:27:53;101854.06;;;2.77;55.44
32081;BME280;18593;51.426;7.030;2023-04-04T03:30:23;101863.91;;;2.75;55.52
32081;BME280;18593;51.426;7.030;2023-04-04T03:32:50;101850.88;;;2.74;55.25
32081;BME280;18593;51.426;7.030;2023-04-04T03:35:18;101854.44;;;2.73;55.43
32081;BME280;18593;51.426;7.030;2023-04-04T03:37:45;101850.13;;;2.72;55.24
32081;BME280;18593;51.426;7.030;2023-04-04T03:40:13;101845.00;;;2.70;55.29
32081;BME280;18593;51.426;7.030;2023-04-04T03:42:41;101845.00;;;2.70;55.24
32081;BME280;18593;51.426;7.030;2023-04-04T03:45:10;101838.06;;;2.69;55.06
32081;BME280;18593;51.426;7.030;2023-04-04T03:47:39;101833.88;;;2.67;55.07
32081;BME280;18593;51.426;7.030;2023-04-04T03:50:06;101834.97;;;2.64;55.52
32081;BME280;18593;51.426;7.030;2023-04-04T03:52:37;101838.56;;;2.63;55.53
32081;BME280;18593;51.426;7.030;2023-04-04T03:55:05;101838.81;;;2.60;55.45
32081;BME280;18593;51.426;7.030;2023-04-04T03:57:34;101835.34;;;2.60;55.46
32081;BME280;18593;51.426;7.030;2023-04-04T04:00:02;101836.28;;;2.58;55.57
32081;BME280;18593;51.426;7.030;2023-04-04T04:02:37;101838.38;;;2.55;55.61
32081;BME280;18593;51.426;7.030;2023-04-04T04:05:05;101840.16;;;2.54;55.53
32081;BME280;18593;51.426;7.030;2023-04-04T04:07:33;101831.53;;;2.52;55.98
32081;BME280;18593;51.426;7.030;2023-04-04T04:10:00;101828.91;;;2.52;55.98
32081;BME280;18593;51.426;7.030;2023-04-04T04:12:28;101832.63;;;2.50;56.04
32081;BME280;18593;51.426;7.030;2023-04-04T04:14:56;101837.06;;;2.49;55.97
32081;BME280;18593;51.426;7.030;2023-04-04T04:17:23;101833.56;;;2.49;56.21
32081;BME280;18593;51.426;7.030;2023-04-04T04:19:50;101827.47;;;2.48;55.88
32081;BME280;18593;51.426;7.030;2023-04-04T04:22:17;101828.44;;;2.47;56.08
32081;BME280;18593;51.426;7.030;2023-04-04T04:24:45;101829.41;;;2.46;55.94
32081;BME280;18593;51.426;7.030;2023-04-04T04:27:12;101826.78;;;2.46;56.12
32081;BME280;18593;51.426;7.030;2023-04-04T04:29:39;101827.75;;;2.45;56.59
32081;BME280;18593;51.426;7.030;2023-04-04T04:32:08;101829.66;;;2.43;56.68
32081;BME280;18593;51.426;7.030;2023-04-04T04:34:41;101833.13;;;2.44;56.26
32081;BME280;18593;51.426;7.030;2023-04-04T04:37:08;101824.53;;;2.42;56.39
32081;BME280;18593;51.426;7.030;2023-04-04T04:39:44;101824.53;;;2.42;56.33
32081;BME280;18593;51.426;7.030;2023-04-04T04:42:32;101828.94;;;2.41;56.59
32081;BME280;18593;51.426;7.030;2023-04-04T04:45:01;101830.88;;;2.39;56.38
32081;BME280;18593;51.426;7.030;2023-04-04T04:47:32;101818.66;;;2.38;56.42
32081;BME280;18593;51.426;7.030;2023-04-04T04:50:02;101831.81;;;2.38;56.26
32081;BME280;18593;51.426;7.030;2023-04-04T04:52:36;101821.41;;;2.37;56.06
32081;BME280;18593;51.426;7.030;2023-04-04T04:55:03;101821.56;;;2.35;56.07
32081;BME280;18593;51.426;7.030;2023-04-04T04:57:32;101822.50;;;2.34;56.47
32081;BME280;18593;51.426;7.030;2023-04-04T05:00:04;101821.78;;;2.32;56.50
32081;BME280;18593;51.426;7.030;2023-04-04T05:02:32;101821.94;;;2.30;56.62
32081;BME280;18593;51.426;7.030;2023-04-04T05:04:59;101823.72;;;2.30;56.61
32081;BME280;18593;51.426;7.030;2023-04-04T05:07:27;101826.47;;;2.28;56.63
32081;BME280;18593;51.426;7.030;2023-04-04T05:09:54;101829.09;;;2.28;56.87
32081;BME280;18593;51.426;7.030;2023-04-04T05:12:22;101822.16;;;2.27;56.82
32081;BME280;18593;51.426;7.030;2023-04-04T05:14:51;101825.75;;;2.26;56.70
32081;BME280;18593;51.426;7.030;2023-04-04T05:17:18;101830.19;;;2.26;56.59
32081;BME280;18593;51.426;7.030;2023-04-04T05:19:49;101830.19;;;2.26;56.69
32081;BME280;18593;51.426;7.030;2023-04-04T05:22:20;101833.88;;;2.23;56.89
32081;BME280;18593;51.426;7.030;2023-04-04T05:24:50;101834.84;;;2.22;57.12
32081;BME280;18593;51.426;7.030;2023-04-04T05:27:21;101833.06;;;2.23;56.80
32081;BME280;18593;51.426;7.030;2023-04-04T05:29:54;101836.66;;;2.22;56.79
32081;BME280;18593;51.426;7.030;2023-04-04T05:32:23;101839.28;;;2.22;57.06
32081;BME280;18593;51.426;7.030;2023-04-04T05:35:02;101838.44;;;2.21;57.45
32081;BME280;18593;51.426;7.030;2023-04-04T05:37:33;101848.97;;;2.21;57.29
32081;BME280;18593;51.426;7.030;2023-04-04T05:40:05;101849.94;;;2.20;57.39
32081;BME280;18593;51.426;7.030;2023-04-04T05:42:34;101852.44;;;2.22;57.39
32081;BME280;18593;51.426;7.030;2023-04-04T05:45:01;101862.97;;;2.22;57.62
32081;BME280;18593;51.426;7.030;2023-04-04T05:47:29;101864.66;;;2.23;57.54
32081;BME280;18593;51.426;7.030;2023-04-04T05:49:56;101853.16;;;2.24;57.64
32081;BME280;18593;51.426;7.030;2023-04-04T05:52:25;101863.56;;;2.25;57.58
32081;BME280;18593;51.426;7.030;2023-04-04T05:54:52;101863.44;;;2.27;58.00
32081;BME280;18593;51.426;7.030;2023-04-04T05:57:28;101863.22;;;2.30;58.05
32081;BME280;18593;51.426;7.030;2023-04-04T05:59:57;101860.22;;;2.35;57.81
32081;BME280;18593;51.426;7.030;2023-04-04T06:02:24;101854.69;;;2.38;57.85
32081;BME280;18593;51.426;7.030;2023-04-04T06:04:59;101859.72;;;2.41;57.96
32081;BME280;18593;51.426;7.030;2023-04-04T06:07:34;101857.66;;;2.44;58.19
32081;BME280;18593;51.426;7.030;2023-04-04T06:10:01;101861.00;;;2.46;57.92
32081;BME280;18593;51.426;7.030;2023-04-04T06:12:29;101866.88;;;2.50;58.01
32081;BME280;18593;51.426;7.030;2023-04-04T06:14:57;101866.72;;;2.51;58.10
32081;BME280;18593;51.426;7.030;2023-04-04T06:17:24;101876.91;;;2.56;58.39
32081;BME280;18593;51.426;7.030;2023-04-04T06:19:52;101883.59;;;2.60;58.46
32081;BME280;18593;51.426;7.030;2023-04-04T06:22:21;101895.44;;;2.66;58.91
32081;BME280;18593;51.426;7.030;2023-04-04T06:24:52;101900.91;;;2.74;58.90
32081;BME280;18593;51.426;7.030;2023-04-04T06:27:19;101898.84;;;2.77;58.54
32081;BME280;18593;51.426;7.030;2023-04-04T06:29:47;101905.41;;;2.83;58.64
32081;BME280;18593;51.426;7.030;2023-04-04T06:32:18;101902.16;;;2.91;58.46
32081;BME280;18593;51.426;7.030;2023-04-04T06:34:46;101887.63;;;2.96;58.35
32081;BME280;18593;51.426;7.030;2023-04-04T06:37:17;101903.66;;;3.04;58.02
32081;BME280;18593;51.426;7.030;2023-04-04T06:40:04;101904.81;;;3.12;58.54
32081;BME280;18593;51.426;7.030;2023-04-04T06:42:31;101901.56;;;3.19;58.39
32081;BME280;18593;51.426;7.030;2023-04-04T06:45:02;101907.16;;;3.26;58.03
32081;BME280;18593;51.426;7.030;2023-04-04T06:47:30;101906.38;;;3.35;57.73
32081;BME280;18593;51.426;7.030;2023-04-04T06:50:00;101905.75;;;3.43;57.79
32081;BME280;18593;51.426;7.030;2023-04-04T06:52:27;101904.13;;;3.51;57.68
32081;BME280;18593;51.426;7.030;2023-04-04T06:54:54;101909.59;;;3.59;57.47
32081;BME280;18593;51.426;7.030;2023-04-04T06:57:23;101898.00;;;3.72;57.33
32081;BME280;18593;51.426;7.030;2023-04-04T06:59:50;101905.81;;;3.83;56.91
32081;BME280;18593;51.426;7.030;2023-04-04T07:02:17;101898.78;;;3.93;56.99
32081;BME280;18593;51.426;7.030;2023-04-04T07:04:44;101894.38;;;4.03;56.52
32081;BME280;18593;51.426;7.030;2023-04-04T07:07:11;101896.22;;;4.12;56.08
32081;BME280;18593;51.426;7.030;2023-04-04T07:09:38;101896.41;;;4.21;55.62
32081;BME280;18593;51.426;7.030;2023-04-04T07:12:05;101904.19;;;4.32;55.16
32081;BME280;18593;51.426;7.030;2023-04-04T07:14:34;101903.41;;;4.41;55.06
32081;BME280;18593;51.426;7.030;2023-04-04T07:17:01;101901.59;;;4.51;55.26
32081;BME280;18593;51.426;7.030;2023-04-04T07:19:28;101909.56;;;4.61;54.19
32081;BME280;18593;51.426;7.030;2023-04-04T07:21:55;101902.63;;;4.70;54.26
32081;BME280;18593;51.426;7.030;2023-04-04T07:24:22;101900.81;;;4.80;54.03
32081;BME280;18593;51.426;7.030;2023-04-04T07:26:49;101898.03;;;4.91;53.41
32081;BME280;18593;51.426;7.030;2023-04-04T07:29:16;101900.81;;;4.99;53.04
32081;BME280;18593;51.426;7.030;2023-04-04T07:31:44;101898.75;;;5.12;53.53
32081;BME280;18593;51.426;7.030;2023-04-04T07:34:12;101901.06;;;5.25;53.25
32081;BME280;18593;51.426;7.030;2023-04-04T07:36:39;101898.00;;;5.39;52.99
32081;BME280;18593;51.426;7.030;2023-04-04T07:39:06;101900.34;;;5.52;52.24
32081;BME280;18593;51.426;7.030;2023-04-04T07:41:33;101894.88;;;5.63;51.96
32081;BME280;18593;51.426;7.030;2023-04-04T07:44:00;101899.72;;;5.78;51.60
32081;BME280;18593;51.426;7.030;2023-04-04T07:46:27;101897.59;;;5.91;50.89
32081;BME280;18593;51.426;7.030;2023-04-04T07:48:55;101901.19;;;6.00;51.55
32081;BME280;18593;51.426;7.030;2023-04-04T07:51:22;101888.59;;;6.11;50.74
32081;BME280;18593;51.426;7.030;2023-04-04T07:53:54;101884.09;;;6.22;50.47
32081;BME280;18593;51.426;7.030;2023-04-04T07:56:21;101883.31;;;6.29;49.58
32081;BME280;18593;51.426;7.030;2023-04-04T07:58:48;101888.06;;;6.35;48.41
32081;BME280;18593;51.426;7.030;2023-04-04T08:01:15;101880.06;;;6.45;48.47
32081;BME280;18593;51.426;7.030;2023-04-04T08:03:42;101881.56;;;6.48;47.88
32081;BME280;18593;51.426;7.030;2023-04-04T08:06:10;101871.78;;;6.48;48.42
32081;BME280;18593;51.426;7.030;2023-04-04T08:08:38;101870.34;;;6.54;48.22
32081;BME280;18593;51.426;7.030;2023-04-04T08:11:05;101870.75;;;6.59;48.25
32081;BME280;18593;51.426;7.030;2023-04-04T08:13:32;101872.94;;;6.63;47.97
32081;BME280;18593;51.426;7.030;2023-04-04T08:15:59;101869.97;;;6.66;46.26
32081;BME280;18593;51.426;7.030;2023-04-04T08:18:26;101873.19;;;6.70;45.93
32081;BME280;18593;51.426;7.030;2023-04-04T08:20:53;101873.19;;;6.70;46.25
32081;BME280;18593;51.426;7.030;2023-04-04T08:23:22;101877.50;;;6.71;46.67
32081;BME280;18593;51.426;7.030;2023-04-04T08:25:49;101878.69;;;6.77;46.65
32081;BME280;18593;51.426;7.030;2023-04-04T08:28:16;101877.88;;;6.76;46.00
32081;BME280;18593;51.426;7.030;2023-04-04T08:30:43;101877.31;;;6.72;45.52
32081;BME280;18593;51.426;7.030;2023-04-04T08:33:10;101875.22;;;6.76;44.92
32081;BME280;18593;51.426;7.030;2023-04-04T08:35:37;101874.59;;;6.82;44.20
32081;BME280;18593;51.426;7.030;2023-04-04T08:38:04;101873.47;;;6.85;44.80
32081;BME280;18593;51.426;7.030;2023-04-04T08:40:34;101873.47;;;6.85;44.45
32081;BME280;18593;51.426;7.030;2023-04-04T08:43:03;101877.25;;;6.82;44.58
32081;BME280;18593;51.426;7.030;2023-04-04T08:45:31;101867.47;;;6.83;44.55
32081;BME280;18593;51.426;7.030;2023-04-04T08:47:59;101869.69;;;6.87;45.48
32081;BME280;18593;51.426;7.030;2023-04-04T08:50:27;101866.88;;;6.89;44.63
32081;BME280;18593;51.426;7.030;2023-04-04T08:52:55;101864.44;;;6.78;42.32
32081;BME280;18593;51.426;7.030;2023-04-04T08:55:24;101861.59;;;6.71;41.80
32081;BME280;18593;51.426;7.030;2023-04-04T08:57:53;101875.81;;;6.70;42.07
32081;BME280;18593;51.426;7.030;2023-04-04T09:00:20;101870.66;;;6.68;42.10
32081;BME280;18593;51.426;7.030;2023-04-04T09:02:51;101867.72;;;6.71;42.08
32081;BME280;18593;51.426;7.030;2023-04-04T09:05:22;101870.38;;;6.71;41.69
32081;BME280;18593;51.426;7.030;2023-04-04T09:07:50;101872.47;;;6.68;41.42
32081;BME280;18593;51.426;7.030;2023-04-04T09:10:17;101881.13;;;6.70;41.80
32081;BME280;18593;51.426;7.030;2023-04-04T09:12:46;101867.19;;;6.68;41.61
32081;BME280;18593;51.426;7.030;2023-04-04T09:15:14;101858.38;;;6.67;41.13
32081;BME280;18593;51.426;7.030;2023-04-04T09:17:42;101874.16;;;6.69;41.69
32081;BME280;18593;51.426;7.030;2023-04-04T09:20:33;101863.25;;;6.72;42.31
32081;BME280;18593;51.426;7.030;2023-04-04T09:23:00;101856.94;;;6.73;41.57
32081;BME280;18593;51.426;7.030;2023-04-04T09:25:27;101853.78;;;6.69;40.99
32081;BME280;18593;51.426;7.030;2023-04-04T09:27:55;101851.81;;;6.71;41.88
32081;BME280;18593;51.426;7.030;2023-04-04T09:30:24;101844.31;;;6.67;40.64
32081;BME280;18593;51.426;7.030;2023-04-04T09:32:51;101854.09;;;6.66;41.06
32081;BME280;18593;51.426;7.030;2023-04-04T09:35:19;101849.78;;;6.65;40.75
32081;BME280;18593;51.426;7.030;2023-04-04T09:37:46;101842.56;;;6.58;40.19
32081;BME280;18593;51.426;7.030;2023-04-04T09:40:13;101847.03;;;6.57;41.01
32081;BME280;18593;51.426;7.030;2023-04-04T09:42:41;101861.50;;;6.63;40.82
32081;BME280;18593;51.426;7.030;2023-04-04T09:45:09;101853.53;;;6.63;40.91
32081;BME280;18593;51.426;7.030;2023-04-04T09:47:40;101849.00;;;6.55;40.59
32081;BME280;18593;51.426;7.030;2023-04-04T09:50:08;101840.75;;;6.58;41.02
32081;BME280;18593;51.426;7.030;2023-04-04T09:52:36;101850.06;;;6.62;40.90
32081;BME280;18593;51.426;7.030;2023-04-04T09:55:04;101843.47;;;6.66;40.30
32081;BME280;18593;51.426;7.030;2023-04-04T09:57:33;101841.50;;;6.68;41.24
32081;BME280;18593;51.426;7.030;2023-04-04T10:00:02;101834.91;;;6.72;40.84
32081;BME280;18593;51.426;7.030;2023-04-04T10:02:36;101847.19;;;6.74;40.54
32081;BME280;18593;51.426;7.030;2023-04-04T10:05:07;101840.06;;;6.74;40.59
32081;BME280;18593;51.426;7.030;2023-04-04T10:07:37;101847.03;;;6.75;40.70
32081;BME280;18593;51.426;7.030;2023-04-04T10:10:05;101838.63;;;6.80;40.50
32081;BME280;18593;51.426;7.030;2023-04-04T10:12:34;101843.59;;;6.83;40.30
32081;BME280;18593;51.426;7.030;2023-04-04T10:15:02;101829.38;;;6.84;40.30
32081;BME280;18593;51.426;7.030;2023-04-04T10:17:30;101838.31;;;6.83;39.96
32081;BME280;18593;51.426;7.030;2023-04-04T10:19:59;101840.13;;;6.82;40.46
32081;BME280;18593;51.426;7.030;2023-04-04T10:22:28;101847.25;;;6.82;39.17
32081;BME280;18593;51.426;7.030;2023-04-04T10:24:55;101830.69;;;6.80;38.84
32081;BME280;18593;51.426;7.030;2023-04-04T10:27:23;101833.63;;;6.77;38.19
32081;BME280;18593;51.426;7.030;2023-04-04T10:29:50;101828.66;;;6.74;37.81
32081;BME280;18593;51.426;7.030;2023-04-04T10:32:21;101828.31;;;6.77;38.38
32081;BME280;18593;51.426;7.030;2023-04-04T10:34:54;101825.13;;;6.73;38.37
32081;BME280;18593;51.426;7.030;2023-04-04T10:37:24;101806.28;;;6.76;39.21
32081;BME280;18593;51.426;7.030;2023-04-04T10:39:57;101809.75;;;6.77;38.40
32081;BME280;18593;51.426;7.030;2023-04-04T10:42:27;101814.22;;;6.76;38.92
32081;BME280;18593;51.426;7.030;2023-04-04T10:44:57;101809.59;;;6.78;38.53
32081;BME280;18593;51.426;7.030;2023-04-04T10:47:27;101812.13;;;6.80;38.96
32081;BME280;18593;51.426;7.030;2023-04-04T10:49:55;101801.34;;;6.81;39.61
32081;BME280;18593;51.426;7.030;2023-04-04T10:52:22;101803.72;;;6.84;39.10
32081;BME280;18593;51.426;7.030;2023-04-04T10:54:51;101790.28;;;6.86;39.27
32081;BME280;18593;51.426;7.030;2023-04-04T10:57:19;101800.72;;;6.87;39.19
32081;BME280;18593;51.426;7.030;2023-04-04T11:00:04;101798.59;;;6.91;38.80
32081;BME280;18593;51.426;7.030;2023-04-04T11:02:47;101798.31;;;6.94;39.01
32081;BME280;18593;51.426;7.030;2023-04-04T11:05:21;101789.88;;;6.99;38.54
32081;BME280;18593;51.426;7.030;2023-04-04T11:07:52;101781.09;;;6.98;38.60
32081;BME280;18593;51.426;7.030;2023-04-04T11:10:21;101778.13;;;7.01;39.20
32081;BME280;18593;51.426;7.030;2023-04-04T11:12:54;101775.16;;;7.04;39.67
32081;BME280;18593;51.426;7.030;2023-04-04T11:15:23;101763.56;;;7.05;39.30
32081;BME280;18593;51.426;7.030;2023-04-04T11:17:57;101766.88;;;7.07;37.59
32081;BME280;18593;51.426;7.030;2023-04-04T11:20:32;101765.75;;;7.10;38.39
32081;BME280;18593;51.426;7.030;2023-04-04T11:23:09;101773.72;;;7.10;38.31
32081;BME280;18593;51.426;7.030;2023-04-04T11:25:40;101764.59;;;7.12;38.47
32081;BME280;18593;51.426;7.030;2023-04-04T11:28:25;101750.03;;;7.16;38.88
32081;BME280;18593;51.426;7.030;2023-04-04T11:31:25;101754.69;;;7.14;37.32
32081;BME280;18593;51.426;7.030;2023-04-04T11:33:56;101766.28;;;7.13;37.53
32081;BME280;18593;51.426;7.030;2023-04-04T11:36:47;101764.28;;;7.15;38.46
32081;BME280;18593;51.426;7.030;2023-04-04T11:39:22;101765.94;;;7.16;39.16
32081;BME280;18593;51.426;7.030;2023-04-04T11:41:52;101755.03;;;7.19;39.27
32081;BME280;18593;51.426;7.030;2023-04-04T11:44:21;101759.03;;;7.23;39.12
32081;BME280;18593;51.426;7.030;2023-04-04T11:46:49;101746.78;;;7.22;38.81
32081;BME280;18593;51.426;7.030;2023-04-04T11:49:24;101749.09;;;7.26;38.84
32081;BME280;18593;51.426;7.030;2023-04-04T11:51:51;101749.78;;;7.28;38.91
32081;BME280;18593;51.426;7.030;2023-04-04T11:54:19;101738.16;;;7.29;39.13
32081;BME280;18593;51.426;7.030;2023-04-04T11:56:46;101746.78;;;7.31;39.57
32081;BME280;18593;51.426;7.030;2023-04-04T11:59:16;101738.00;;;7.30;39.18
32081;BME280;18593;51.426;7.030;2023-04-04T12:01:45;101738.69;;;7.32;39.55
32081;BME280;18593;51.426;7.030;2023-04-04T12:04:14;101743.66;;;7.35;39.77
32081;BME280;18593;51.426;7.030;2023-04-04T12:06:42;101738.19;;;7.37;39.69
32081;BME280;18593;51.426;7.030;2023-04-04T12:09:09;101740.53;;;7.40;39.13
32081;BME280;18593;51.426;7.030;2023-04-04T12:11:42;101734.44;;;7.47;39.80
32081;BME280;18593;51.426;7.030;2023-04-04T12:14:14;101729.13;;;7.47;39.25
32081;BME280;18593;51.426;7.030;2023-04-04T12:16:42;101736.94;;;7.49;38.98
32081;BME280;18593;51.426;7.030;2023-04-04T12:19:10;101726.47;;;7.47;38.57
32081;BME280;18593;51.426;7.030;2023-04-04T12:21:37;101725.78;;;7.45;38.85
32081;BME280;18593;51.426;7.030;2023-04-04T12:24:06;101707.91;;;7.47;38.89
32081;BME280;18593;51.426;7.030;2023-04-04T12:26:34;101711.91;;;7.52;38.85
32081;BME280;18593;51.426;7.030;2023-04-04T12:29:02;101715.88;;;7.56;38.51
32081;BME280;18593;51.426;7.030;2023-04-04T12:31:30;101711.25;;;7.58;38.55
32081;BME280;18593;51.426;7.030;2023-04-04T12:33:58;101703.94;;;7.60;38.57
32081;BME280;18593;51.426;7.030;2023-04-04T12:36:27;101705.47;;;7.62;37.88
32081;BME280;18593;51.426;7.030;2023-04-04T12:38:56;101694.97;;;7.61;37.86
32081;BME280;18593;51.426;7.030;2023-04-04T12:41:23;101699.16;;;7.63;37.96
32081;BME280;18593;51.426;7.030;2023-04-04T12:43:51;101672.91;;;7.60;37.72
32081;BME280;18593;51.426;7.030;2023-04-04T12:46:24;101671.94;;;7.61;37.85
32081;BME280;18593;51.426;7.030;2023-04-04T12:48:51;101666.63;;;7.61;37.76
32081;BME280;18593;51.426;7.030;2023-04-04T12:51:18;101671.94;;;7.61;37.25
32081;BME280;18593;51.426;7.030;2023-04-04T12:53:53;101668.94;;;7.64;37.20
32081;BME280;18593;51.426;7.030;2023-04-04T12:56:24;101660.00;;;7.65;36.69
32081;BME280;18593;51.426;7.030;2023-04-04T12:58:52;101657.84;;;7.69;36.42
32081;BME280;18593;51.426;7.030;2023-04-04T13:01:19;101655.84;;;7.71;35.81
32081;BME280;18593;51.426;7.030;2023-04-04T13:03:46;101661.16;;;7.71;35.94
32081;BME280;18593;51.426;7.030;2023-04-04T13:06:15;101655.84;;;7.71;36.55
32081;BME280;18593;51.426;7.030;2023-04-04T13:08:49;101649.72;;;7.70;36.98
32081;BME280;18593;51.426;7.030;2023-04-04T13:11:18;101644.75;;;7.75;37.12